Aviation Digital Data Service (ADDS)

Output produced by TAFs form (1010 UTC 21 November 2017)
found at http://aviationweather.gov/adds/tafs/
 
KROW 210531Z 2106/2206 31006KT P6SM BKN250 
     FM211200 32013KT P6SM SCT250 
     FM211800 36018G28KT P6SM SCT250 
     FM212300 05013KT P6SM FEW250 
     FM220200 04006KT P6SM SKC